createdAt,value
2023-01-23T00:02:14.177Z,3.10
2023-01-23T00:05:16.269Z,3.03
2023-01-23T00:08:21.784Z,3.60
2023-01-23T00:11:28.523Z,3.13
2023-01-23T00:14:30.959Z,2.27
2023-01-23T00:17:36.330Z,1.77
2023-01-23T00:20:39.274Z,2.00
2023-01-23T00:23:50.239Z,1.80
2023-01-23T00:26:52.407Z,2.30
2023-01-23T00:29:54.609Z,3.20
2023-01-23T00:32:56.697Z,2.00
2023-01-23T00:35:58.811Z,3.20
2023-01-23T00:39:01.384Z,2.20
2023-01-23T00:42:04.157Z,3.97
2023-01-23T00:45:06.946Z,1.70
2023-01-23T00:48:09.042Z,2.90
2023-01-23T00:51:11.267Z,3.00
2023-01-23T00:54:13.575Z,3.37
2023-01-23T00:57:15.908Z,1.77
2023-01-23T01:00:21.355Z,2.22
2023-01-23T01:03:25.365Z,1.90
2023-01-23T01:06:29.047Z,2.00
2023-01-23T01:09:32.214Z,2.30
2023-01-23T01:12:34.333Z,2.20
2023-01-23T01:15:37.704Z,2.00
2023-01-23T01:18:39.935Z,2.50
2023-01-23T01:21:42.628Z,1.87
2023-01-23T01:24:45.317Z,1.67
2023-01-23T01:27:47.929Z,1.80
2023-01-23T01:30:50.022Z,2.30
2023-01-23T01:33:52.232Z,2.00
2023-01-23T01:36:54.338Z,2.00
2023-01-23T01:39:56.523Z,2.47
2023-01-23T01:43:02.195Z,1.67
2023-01-23T01:46:26.426Z,1.50
2023-01-23T01:49:32.523Z,1.70
2023-01-23T01:52:34.780Z,1.97
2023-01-23T01:55:38.194Z,1.30
2023-01-23T01:58:42.764Z,2.00
2023-01-23T02:01:47.556Z,1.58
2023-01-23T02:04:58.081Z,1.60
2023-01-23T02:08:14.787Z,2.37
2023-01-23T02:11:18.718Z,1.30
2023-01-23T02:14:21.099Z,1.40
2023-01-23T02:17:23.247Z,1.10
2023-01-23T02:20:27.797Z,1.83
2023-01-23T02:23:29.865Z,1.27
2023-01-23T02:26:46.228Z,1.97
2023-01-23T02:29:50.659Z,1.60
2023-01-23T02:32:55.052Z,1.85
2023-01-23T02:35:57.639Z,1.30
2023-01-23T02:39:15.113Z,0.97
2023-01-23T02:42:17.499Z,1.60
2023-01-23T02:45:19.565Z,1.97
2023-01-23T02:48:22.736Z,1.20
2023-01-23T02:51:25.062Z,1.27
2023-01-23T02:54:27.272Z,2.17
2023-01-23T02:57:29.449Z,1.20
2023-01-23T03:00:31.608Z,1.07
2023-01-23T03:03:33.736Z,1.10
2023-01-23T03:06:37.878Z,1.40
2023-01-23T03:09:40.411Z,1.83
2023-01-23T03:12:43.636Z,1.13
2023-01-23T03:15:50.339Z,0.88
2023-01-23T03:18:54.668Z,1.90
2023-01-23T03:21:57.402Z,1.50
2023-01-23T03:25:01.533Z,1.63
2023-01-23T03:28:24.156Z,1.60
2023-01-23T03:31:26.390Z,1.27
2023-01-23T03:34:29.060Z,1.03
2023-01-23T03:37:31.136Z,1.83
2023-01-23T03:40:51.628Z,1.10
2023-01-23T03:43:53.763Z,1.40
2023-01-23T03:46:55.878Z,0.83
2023-01-23T03:49:58.015Z,1.53
2023-01-23T03:53:00.127Z,1.10
2023-01-23T03:56:02.321Z,1.40
2023-01-23T03:59:04.870Z,1.10
2023-01-23T04:02:07.012Z,1.07
2023-01-23T04:05:09.373Z,1.43
2023-01-23T04:08:11.501Z,1.77
2023-01-23T04:11:13.970Z,1.00
2023-01-23T04:14:16.045Z,0.80
2023-01-23T04:17:18.048Z,0.93
2023-01-23T04:20:20.523Z,0.87
2023-01-23T04:23:23.616Z,1.53
2023-01-23T04:26:25.872Z,0.60
2023-01-23T04:29:28.050Z,0.80
2023-01-23T04:32:30.360Z,0.73
2023-01-23T04:35:32.441Z,1.17
2023-01-23T04:38:35.264Z,0.77
2023-01-23T04:41:37.323Z,0.67
2023-01-23T04:44:39.382Z,1.30
2023-01-23T04:47:41.536Z,1.10
2023-01-23T04:50:43.654Z,0.70
2023-01-23T04:53:45.840Z,1.17
2023-01-23T04:56:49.087Z,1.00
2023-01-23T04:59:51.206Z,0.93
2023-01-23T05:02:54.693Z,0.80
2023-01-23T05:05:56.740Z,1.10
2023-01-23T05:08:59.009Z,1.33
2023-01-23T05:12:01.267Z,1.00
2023-01-23T05:15:10.998Z,1.20
2023-01-23T05:18:13.342Z,1.30
2023-01-23T05:21:15.566Z,1.00
2023-01-23T05:24:17.748Z,1.40
2023-01-23T05:27:19.869Z,1.73
2023-01-23T05:30:23.344Z,0.90
2023-01-23T05:33:25.612Z,0.70
2023-01-23T05:36:27.720Z,0.83
2023-01-23T05:39:32.743Z,1.50
2023-01-23T05:45:37.573Z,1.27
2023-01-23T05:48:39.620Z,1.57
2023-01-23T05:51:41.818Z,1.60
2023-01-23T05:54:43.843Z,1.33
2023-01-23T05:57:45.966Z,1.40
2023-01-23T06:00:48.107Z,1.57
2023-01-23T06:03:50.219Z,1.67
2023-01-23T06:06:52.461Z,1.50
2023-01-23T06:09:54.675Z,1.97
2023-01-23T06:12:56.709Z,1.20
2023-01-23T06:15:59.080Z,1.83
2023-01-23T06:19:01.290Z,2.00
2023-01-23T06:22:03.547Z,1.40
2023-01-23T06:25:06.368Z,1.90
2023-01-23T06:28:08.866Z,1.20
2023-01-23T06:31:12.730Z,2.37
2023-01-23T06:34:16.085Z,2.30
2023-01-23T06:37:18.256Z,1.97
2023-01-23T06:40:20.715Z,2.20
2023-01-23T06:43:24.204Z,1.90
2023-01-23T06:46:26.334Z,1.73
2023-01-23T06:49:28.392Z,1.80
2023-01-23T06:52:30.980Z,1.67
2023-01-23T06:55:33.878Z,1.80
2023-01-23T06:58:38.853Z,1.60
2023-01-23T07:01:41.201Z,1.55
2023-01-23T07:04:43.309Z,1.80
2023-01-23T07:07:45.852Z,2.33
2023-01-23T07:10:50.058Z,1.50
2023-01-23T07:13:52.334Z,2.00
2023-01-23T07:16:55.772Z,2.30
2023-01-23T07:19:57.865Z,1.33
2023-01-23T07:23:00.100Z,1.37
2023-01-23T07:26:04.319Z,1.73
2023-01-23T07:29:08.923Z,1.20
2023-01-23T07:32:11.440Z,1.20
2023-01-23T07:35:13.921Z,1.17
2023-01-23T07:38:16.018Z,1.93
2023-01-23T07:41:18.185Z,1.80
2023-01-23T07:44:22.039Z,2.50
2023-01-23T07:47:24.644Z,2.65
2023-01-23T07:50:26.705Z,1.83
2023-01-23T07:53:28.840Z,2.10
2023-01-23T07:56:33.002Z,2.20
2023-01-23T07:59:36.719Z,2.33
2023-01-23T08:02:40.255Z,2.57
2023-01-23T08:05:44.061Z,4.70
2023-01-23T08:08:49.180Z,2.67
2023-01-23T08:14:54.635Z,3.60
2023-01-23T08:17:56.769Z,4.00
2023-01-23T08:21:01.908Z,3.87
2023-01-23T08:24:05.036Z,4.70
2023-01-23T08:27:08.433Z,3.37
2023-01-23T08:30:11.567Z,2.87
2023-01-23T08:33:13.820Z,2.83
2023-01-23T08:36:16.018Z,3.07
2023-01-23T08:39:20.229Z,3.40
2023-01-23T08:42:22.354Z,4.45
2023-01-23T08:45:25.838Z,4.97
2023-01-23T08:48:28.664Z,4.10
2023-01-23T08:51:31.008Z,4.28
2023-01-23T08:54:33.526Z,6.15
2023-01-23T08:57:35.755Z,4.25
2023-01-23T09:00:40.552Z,3.80
2023-01-23T09:03:44.065Z,4.60
2023-01-23T09:06:46.323Z,6.03
2023-01-23T09:09:48.911Z,3.95
2023-01-23T09:12:55.490Z,5.78
2023-01-23T09:15:57.929Z,4.32
2023-01-23T09:19:00.044Z,3.95
2023-01-23T09:22:02.906Z,5.15
2023-01-23T09:25:05.762Z,6.30
2023-01-23T09:28:08.210Z,6.03
2023-01-23T09:31:14.375Z,5.63
2023-01-23T09:34:17.380Z,5.60
2023-01-23T09:37:19.637Z,5.60
2023-01-23T09:40:25.363Z,6.88
2023-01-23T09:43:39.454Z,10.32
2023-01-23T09:46:51.279Z,6.18
2023-01-23T09:50:03.674Z,5.18
2023-01-23T09:53:19.199Z,5.22
2023-01-23T09:56:42.019Z,5.20
2023-01-23T10:00:00.664Z,4.95
2023-01-23T10:03:12.538Z,4.88
2023-01-23T10:06:24.563Z,4.35
2023-01-23T10:09:38.024Z,5.15
2023-01-23T10:12:55.132Z,5.77
2023-01-23T10:16:14.365Z,3.63
2023-01-23T10:19:37.495Z,5.15
2023-01-23T10:22:54.089Z,4.43
2023-01-23T10:25:56.524Z,4.78
2023-01-23T10:29:10.611Z,4.10
2023-01-23T10:32:24.773Z,4.63
2023-01-23T10:35:50.915Z,3.35
2023-01-23T10:38:53.074Z,3.60
2023-01-23T10:42:02.078Z,3.28
2023-01-23T10:45:05.959Z,3.50
2023-01-23T10:48:46.883Z,2.67
2023-01-23T10:51:50.759Z,2.35
2023-01-23T10:54:55.045Z,2.17
2023-01-23T11:01:02.883Z,3.25
2023-01-23T11:04:22.968Z,2.70
2023-01-23T11:07:48.444Z,3.65
2023-01-23T11:10:50.819Z,4.07
2023-01-23T11:14:13.270Z,3.40
2023-01-23T11:17:21.802Z,3.00
2023-01-23T11:20:33.565Z,2.53
2023-01-23T11:23:35.716Z,4.45
2023-01-23T11:26:38.967Z,4.22
2023-01-23T11:30:08.762Z,4.45
2023-01-23T11:33:25.929Z,1.77
2023-01-23T11:36:32.046Z,1.80
2023-01-23T11:39:43.517Z,7.53
2023-01-23T11:42:46.374Z,3.40
2023-01-23T11:45:56.728Z,2.22
2023-01-23T11:49:08.070Z,2.72
2023-01-23T11:52:45.491Z,1.95
2023-01-23T11:56:14.591Z,3.03
2023-01-23T11:59:39.307Z,3.75
2023-01-23T12:02:58.688Z,2.05
2023-01-23T12:06:19.650Z,2.40
2023-01-23T12:09:24.641Z,4.90
2023-01-23T12:16:03.910Z,2.92
2023-01-23T12:19:11.982Z,2.65
2023-01-23T12:22:27.199Z,2.97
2023-01-23T12:25:40.323Z,2.50
2023-01-23T12:29:02.642Z,3.00
2023-01-23T12:32:07.847Z,4.93
2023-01-23T12:35:13.058Z,3.75
2023-01-23T12:38:56.248Z,3.00
2023-01-23T12:42:10.395Z,3.73
2023-01-23T12:45:22.263Z,3.33
2023-01-23T12:48:36.773Z,3.60
2023-01-23T12:51:43.507Z,3.50
2023-01-23T12:55:26.140Z,3.10
2023-01-23T12:58:32.494Z,2.90
2023-01-23T13:01:52.333Z,3.03
2023-01-23T13:05:06.756Z,3.50
2023-01-23T13:08:20.139Z,4.07
2023-01-23T13:11:40.902Z,3.10
2023-01-23T13:21:48.086Z,3.17
2023-01-23T13:25:13.248Z,3.27
2023-01-23T13:28:45.270Z,3.57
2023-01-23T13:32:23.308Z,3.60
2023-01-23T13:35:56.226Z,2.57
2023-01-23T13:39:19.719Z,4.40
2023-01-23T13:42:28.155Z,3.07
2023-01-23T13:45:31.318Z,3.30
2023-01-23T14:24:45.445Z,2.23
2023-01-23T14:27:53.596Z,1.90
2023-01-23T14:31:02.401Z,1.20
2023-01-23T14:34:17.968Z,1.63
2023-01-23T14:37:21.334Z,1.63
2023-01-23T14:40:28.200Z,1.50
2023-01-23T14:43:33.336Z,1.73
2023-01-23T14:46:37.853Z,2.13
2023-01-23T14:49:40.321Z,2.03
2023-01-23T14:52:43.567Z,2.07
2023-01-23T14:55:49.962Z,2.00
2023-01-23T14:58:52.257Z,2.60
2023-01-23T15:02:24.428Z,2.50
2023-01-23T15:05:29.692Z,3.23
2023-01-23T15:08:33.661Z,3.47
2023-01-23T15:11:35.916Z,2.77
2023-01-23T15:14:40.561Z,1.63
2023-01-23T15:17:45.480Z,1.88
2023-01-23T15:24:13.783Z,1.43
2023-01-23T15:27:31.683Z,0.90
2023-01-23T15:30:33.854Z,1.40
2023-01-23T15:33:40.026Z,1.13
2023-01-23T15:37:00.219Z,1.20
2023-01-23T15:40:04.473Z,0.70
2023-01-23T15:43:11.837Z,0.87
2023-01-23T15:46:15.074Z,1.07
2023-01-23T15:49:25.517Z,1.00
2023-01-23T15:52:31.355Z,1.30
2023-01-23T15:55:33.466Z,1.60
2023-01-23T15:58:35.793Z,1.00
2023-01-23T16:01:37.901Z,1.10
2023-01-23T16:04:39.989Z,1.27
2023-01-23T16:07:44.769Z,1.30
2023-01-23T16:10:47.387Z,1.90
2023-01-23T16:13:49.739Z,1.40
2023-01-23T16:16:51.821Z,2.37
2023-01-23T16:19:54.633Z,1.90
2023-01-23T16:23:03.583Z,1.10
2023-01-23T16:26:21.629Z,1.50
2023-01-23T16:29:34.109Z,1.03
2023-01-23T16:32:36.580Z,2.17
2023-01-23T16:35:38.996Z,1.10
2023-01-23T16:38:43.260Z,1.20
2023-01-23T16:41:46.840Z,1.77
2023-01-23T16:44:49.584Z,1.30
2023-01-23T16:47:52.341Z,1.60
2023-01-23T16:51:00.387Z,1.80
2023-01-23T16:54:14.269Z,1.40
2023-01-23T16:57:21.396Z,1.77
2023-01-23T17:00:33.925Z,1.70
2023-01-23T17:03:40.788Z,1.50
2023-01-23T17:06:42.948Z,1.30
2023-01-23T17:09:45.849Z,2.63
2023-01-23T17:12:51.677Z,1.67
2023-01-23T17:15:58.096Z,2.00
2023-01-23T17:19:04.194Z,1.50
2023-01-23T17:22:13.976Z,1.50
2023-01-23T17:25:21.419Z,2.53
2023-01-23T17:28:24.173Z,1.90
2023-01-23T17:31:28.426Z,2.63
2023-01-23T17:34:45.202Z,1.95
2023-01-23T17:37:52.400Z,2.37
2023-01-23T17:40:54.668Z,2.63
2023-01-23T17:43:56.718Z,2.20
2023-01-23T17:46:58.970Z,3.50
2023-01-23T17:50:01.428Z,3.90
2023-01-23T17:53:03.487Z,2.80
2023-01-23T17:56:05.991Z,2.73
2023-01-23T17:59:08.072Z,4.07
2023-01-23T18:02:26.560Z,3.90
2023-01-23T18:05:28.839Z,4.10
2023-01-23T18:08:31.079Z,4.00
2023-01-23T18:11:33.793Z,6.77
2023-01-23T18:15:02.932Z,3.60
2023-01-23T18:18:04.926Z,3.93
2023-01-23T18:21:15.233Z,3.53
2023-01-23T18:24:24.965Z,3.93
2023-01-23T18:27:27.451Z,3.00
2023-01-23T18:30:45.843Z,3.17
2023-01-23T18:33:55.807Z,3.43
2023-01-23T18:37:25.559Z,3.73
2023-01-23T18:40:47.828Z,3.77
2023-01-23T18:43:52.716Z,3.70
2023-01-23T18:49:57.137Z,4.50
2023-01-23T18:53:22.318Z,4.70
2023-01-23T18:57:02.062Z,4.63
2023-01-23T19:00:16.708Z,5.33
2023-01-23T19:03:19.386Z,4.88
2023-01-23T19:06:24.309Z,5.43
2023-01-23T19:12:51.557Z,5.13
2023-01-23T19:15:56.510Z,6.57
2023-01-23T19:22:19.931Z,5.03
2023-01-23T19:25:22.839Z,5.67
2023-01-23T19:28:25.391Z,5.27
2023-01-23T19:31:30.516Z,4.87
2023-01-23T19:34:34.059Z,6.70
2023-01-23T19:37:40.021Z,5.90
2023-01-23T19:40:42.985Z,5.97
2023-01-23T19:43:52.189Z,6.77
2023-01-23T19:46:54.475Z,4.10
2023-01-23T19:49:56.687Z,4.23
2023-01-23T19:53:00.285Z,3.97
2023-01-23T19:56:02.450Z,4.90
2023-01-23T19:59:04.557Z,4.10
2023-01-23T20:02:19.202Z,5.80
2023-01-23T20:05:22.442Z,4.97
2023-01-23T20:08:24.826Z,4.60
2023-01-23T20:11:27.124Z,4.30
2023-01-23T20:14:29.814Z,3.80
2023-01-23T20:17:31.878Z,4.70
2023-01-23T20:20:33.912Z,5.90
2023-01-23T20:23:35.990Z,5.43
2023-01-23T20:26:38.147Z,4.90
2023-01-23T20:29:41.820Z,4.30
2023-01-23T20:32:44.130Z,4.57
2023-01-23T20:35:51.889Z,4.15
2023-01-23T20:38:54.343Z,3.93
2023-01-23T20:41:56.696Z,5.77
2023-01-23T20:44:58.861Z,4.90
2023-01-23T20:48:01.033Z,5.40
2023-01-23T20:51:04.019Z,5.93
2023-01-23T20:54:06.170Z,5.43
2023-01-23T20:57:08.212Z,4.90
2023-01-23T21:00:10.963Z,4.60
2023-01-23T21:03:13.105Z,3.93
2023-01-23T21:06:16.424Z,3.87
2023-01-23T21:09:18.990Z,3.70
2023-01-23T21:12:23.665Z,5.17
2023-01-23T21:15:25.733Z,4.60
2023-01-23T21:18:28.644Z,3.60
2023-01-23T21:21:32.794Z,3.93
2023-01-23T21:24:36.580Z,5.20
2023-01-23T21:27:38.718Z,4.70
2023-01-23T21:30:41.043Z,4.77
2023-01-23T21:33:44.936Z,3.93
2023-01-23T21:36:47.170Z,5.03
2023-01-23T21:39:50.412Z,4.97
2023-01-23T21:42:52.458Z,4.50
2023-01-23T21:45:57.122Z,4.90
2023-01-23T21:48:59.247Z,4.57
2023-01-23T21:52:02.305Z,4.13
2023-01-23T21:55:04.661Z,4.93
2023-01-23T21:58:07.655Z,4.43
2023-01-23T22:01:33.869Z,4.53
2023-01-23T22:04:37.179Z,4.23
2023-01-23T22:07:39.330Z,5.17
2023-01-23T22:10:41.386Z,5.80
2023-01-23T22:13:43.530Z,5.87
2023-01-23T22:16:48.960Z,3.87
2023-01-23T22:19:52.733Z,5.73
2023-01-23T22:22:56.250Z,4.03
2023-01-23T22:26:00.894Z,5.37
2023-01-23T22:29:03.078Z,4.47
2023-01-23T22:32:06.256Z,3.67
2023-01-23T22:35:09.441Z,4.13
2023-01-23T22:38:13.884Z,3.80
2023-01-23T22:41:16.067Z,4.93
2023-01-23T22:44:18.299Z,5.03
2023-01-23T22:47:20.637Z,4.07
2023-01-23T22:50:23.586Z,3.87
2023-01-23T22:53:25.632Z,3.83
2023-01-23T22:56:28.777Z,3.93
2023-01-23T22:59:30.957Z,2.70
2023-01-23T23:02:34.194Z,2.97
2023-01-23T23:05:36.281Z,4.10
2023-01-23T23:08:38.501Z,3.23
2023-01-23T23:11:41.999Z,3.07
2023-01-23T23:14:44.421Z,3.47
2023-01-23T23:17:46.544Z,3.13
2023-01-23T23:20:48.819Z,3.70
2023-01-23T23:23:52.335Z,3.97
2023-01-23T23:26:54.779Z,3.90
2023-01-23T23:29:57.189Z,3.87
2023-01-23T23:33:00.606Z,3.30
2023-01-23T23:36:02.744Z,2.87
2023-01-23T23:39:05.134Z,3.43
2023-01-23T23:42:07.380Z,3.57
2023-01-23T23:45:10.050Z,3.47
2023-01-23T23:48:12.526Z,3.00
2023-01-23T23:51:16.339Z,2.80
2023-01-23T23:54:20.396Z,2.60
2023-01-23T23:57:22.525Z,3.17
